sensor_id;sensor_type;location;lat;lon;timestamp;P1;durP1;ratioP1;P2;durP2;ratioP2
3297;SDS011;1661;53.572;10.174;2022-10-17T00:00:44;14.07;;;4.43;;
3297;SDS011;1661;53.572;10.174;2022-10-17T00:03:12;5.80;;;3.60;;
3297;SDS011;1661;53.572;10.174;2022-10-17T00:05:39;11.63;;;3.90;;
3297;SDS011;1661;53.572;10.174;2022-10-17T00:08:07;13.67;;;4.97;;
3297;SDS011;1661;53.572;10.174;2022-10-17T00:10:34;6.77;;;3.60;;
3297;SDS011;1661;53.572;10.174;2022-10-17T00:13:01;5.30;;;3.33;;
3297;SDS011;1661;53.572;10.174;2022-10-17T00:15:28;3.50;;;3.20;;
3297;SDS011;1661;53.572;10.174;2022-10-17T00:17:55;4.20;;;2.87;;
3297;SDS011;1661;53.572;10.174;2022-10-17T00:20:24;5.10;;;2.90;;
3297;SDS011;1661;53.572;10.174;2022-10-17T00:22:51;5.60;;;3.73;;
3297;SDS011;1661;53.572;10.174;2022-10-17T00:25:17;3.63;;;3.23;;
3297;SDS011;1661;53.572;10.174;2022-10-17T00:27:44;6.90;;;3.50;;
3297;SDS011;1661;53.572;10.174;2022-10-17T00:30:14;11.10;;;4.20;;
3297;SDS011;1661;53.572;10.174;2022-10-17T00:32:41;8.23;;;3.87;;
3297;SDS011;1661;53.572;10.174;2022-10-17T00:35:08;6.80;;;3.40;;
3297;SDS011;1661;53.572;10.174;2022-10-17T00:37:36;6.70;;;3.47;;
3297;SDS011;1661;53.572;10.174;2022-10-17T00:40:04;9.27;;;4.80;;
3297;SDS011;1661;53.572;10.174;2022-10-17T00:42:33;9.53;;;2.83;;
3297;SDS011;1661;53.572;10.174;2022-10-17T00:45:03;10.90;;;3.73;;
3297;SDS011;1661;53.572;10.174;2022-10-17T00:47:39;13.30;;;4.20;;
3297;SDS011;1661;53.572;10.174;2022-10-17T00:50:10;9.33;;;3.80;;
3297;SDS011;1661;53.572;10.174;2022-10-17T00:52:40;6.77;;;3.47;;
3297;SDS011;1661;53.572;10.174;2022-10-17T00:55:09;9.17;;;3.40;;
3297;SDS011;1661;53.572;10.174;2022-10-17T00:57:39;9.73;;;3.30;;
3297;SDS011;1661;53.572;10.174;2022-10-17T01:00:08;5.90;;;3.57;;
3297;SDS011;1661;53.572;10.174;2022-10-17T01:02:36;9.20;;;3.60;;
3297;SDS011;1661;53.572;10.174;2022-10-17T01:05:04;6.37;;;3.93;;
3297;SDS011;1661;53.572;10.174;2022-10-17T01:07:32;9.73;;;4.00;;
3297;SDS011;1661;53.572;10.174;2022-10-17T01:10:01;6.10;;;3.57;;
3297;SDS011;1661;53.572;10.174;2022-10-17T01:12:30;4.10;;;3.13;;
3297;SDS011;1661;53.572;10.174;2022-10-17T01:15:08;4.20;;;3.37;;
3297;SDS011;1661;53.572;10.174;2022-10-17T01:17:42;11.40;;;3.43;;
3297;SDS011;1661;53.572;10.174;2022-10-17T01:23:26;18.30;;;4.20;;
3297;SDS011;1661;53.572;10.174;2022-10-17T01:26:11;7.23;;;3.70;;
3297;SDS011;1661;53.572;10.174;2022-10-17T01:28:50;5.60;;;3.33;;
3297;SDS011;1661;53.572;10.174;2022-10-17T01:31:46;6.97;;;3.50;;
3297;SDS011;1661;53.572;10.174;2022-10-17T01:34:20;3.60;;;3.30;;
3297;SDS011;1661;53.572;10.174;2022-10-17T01:37:01;3.50;;;3.20;;
3297;SDS011;1661;53.572;10.174;2022-10-17T01:39:32;6.10;;;3.37;;
3297;SDS011;1661;53.572;10.174;2022-10-17T01:42:09;5.07;;;3.03;;
3297;SDS011;1661;53.572;10.174;2022-10-17T01:44:43;3.60;;;3.03;;
3297;SDS011;1661;53.572;10.174;2022-10-17T01:47:16;5.43;;;3.00;;
3297;SDS011;1661;53.572;10.174;2022-10-17T01:49:45;5.00;;;3.60;;
3297;SDS011;1661;53.572;10.174;2022-10-17T01:52:16;5.80;;;2.90;;
3297;SDS011;1661;53.572;10.174;2022-10-17T01:54:46;5.63;;;3.30;;
3297;SDS011;1661;53.572;10.174;2022-10-17T01:57:17;5.37;;;3.60;;
3297;SDS011;1661;53.572;10.174;2022-10-17T01:59:48;5.70;;;4.30;;
3297;SDS011;1661;53.572;10.174;2022-10-17T02:02:18;4.77;;;3.60;;
3297;SDS011;1661;53.572;10.174;2022-10-17T02:04:46;8.00;;;4.63;;
3297;SDS011;1661;53.572;10.174;2022-10-17T02:07:15;6.17;;;4.30;;
3297;SDS011;1661;53.572;10.174;2022-10-17T02:09:41;8.00;;;5.03;;
3297;SDS011;1661;53.572;10.174;2022-10-17T02:12:17;5.00;;;4.10;;
3297;SDS011;1661;53.572;10.174;2022-10-17T02:15:01;6.17;;;5.17;;
3297;SDS011;1661;53.572;10.174;2022-10-17T02:17:41;6.43;;;4.03;;
3297;SDS011;1661;53.572;10.174;2022-10-17T02:20:16;4.77;;;4.40;;
3297;SDS011;1661;53.572;10.174;2022-10-17T02:22:50;6.20;;;4.87;;
3297;SDS011;1661;53.572;10.174;2022-10-17T02:25:22;5.40;;;4.90;;
3297;SDS011;1661;53.572;10.174;2022-10-17T02:27:58;7.70;;;5.60;;
3297;SDS011;1661;53.572;10.174;2022-10-17T02:30:32;14.37;;;4.70;;
3297;SDS011;1661;53.572;10.174;2022-10-17T02:33:04;9.70;;;5.07;;
3297;SDS011;1661;53.572;10.174;2022-10-17T02:35:34;5.77;;;4.60;;
3297;SDS011;1661;53.572;10.174;2022-10-17T02:38:04;12.37;;;5.17;;
3297;SDS011;1661;53.572;10.174;2022-10-17T02:40:33;6.47;;;5.03;;
3297;SDS011;1661;53.572;10.174;2022-10-17T02:43:02;6.40;;;4.43;;
3297;SDS011;1661;53.572;10.174;2022-10-17T02:45:29;4.57;;;4.17;;
3297;SDS011;1661;53.572;10.174;2022-10-17T02:48:02;9.33;;;4.90;;
3297;SDS011;1661;53.572;10.174;2022-10-17T02:50:34;4.90;;;4.60;;
3297;SDS011;1661;53.572;10.174;2022-10-17T02:53:08;5.60;;;4.63;;
3297;SDS011;1661;53.572;10.174;2022-10-17T02:55:40;6.13;;;4.70;;
3297;SDS011;1661;53.572;10.174;2022-10-17T02:58:13;7.30;;;5.23;;
3297;SDS011;1661;53.572;10.174;2022-10-17T03:00:44;4.63;;;4.23;;
3297;SDS011;1661;53.572;10.174;2022-10-17T03:03:19;5.77;;;5.20;;
3297;SDS011;1661;53.572;10.174;2022-10-17T03:05:47;6.83;;;5.03;;
3297;SDS011;1661;53.572;10.174;2022-10-17T03:08:15;5.53;;;4.97;;
3297;SDS011;1661;53.572;10.174;2022-10-17T03:10:41;5.10;;;4.60;;
3297;SDS011;1661;53.572;10.174;2022-10-17T03:13:08;4.33;;;4.10;;
3297;SDS011;1661;53.572;10.174;2022-10-17T03:15:35;6.80;;;4.60;;
3297;SDS011;1661;53.572;10.174;2022-10-17T03:18:02;6.33;;;4.50;;
3297;SDS011;1661;53.572;10.174;2022-10-17T03:20:30;5.43;;;4.27;;
3297;SDS011;1661;53.572;10.174;2022-10-17T03:22:57;7.87;;;4.47;;
3297;SDS011;1661;53.572;10.174;2022-10-17T03:25:24;6.70;;;4.80;;
3297;SDS011;1661;53.572;10.174;2022-10-17T03:27:51;5.43;;;4.43;;
3297;SDS011;1661;53.572;10.174;2022-10-17T03:30:18;5.57;;;4.00;;
3297;SDS011;1661;53.572;10.174;2022-10-17T03:32:44;5.03;;;3.63;;
3297;SDS011;1661;53.572;10.174;2022-10-17T03:35:11;4.30;;;4.00;;
3297;SDS011;1661;53.572;10.174;2022-10-17T03:37:39;4.87;;;4.27;;
3297;SDS011;1661;53.572;10.174;2022-10-17T03:40:06;3.10;;;2.90;;
3297;SDS011;1661;53.572;10.174;2022-10-17T03:42:33;3.37;;;3.17;;
3297;SDS011;1661;53.572;10.174;2022-10-17T03:45:00;3.30;;;3.10;;
3297;SDS011;1661;53.572;10.174;2022-10-17T03:47:27;4.93;;;3.40;;
3297;SDS011;1661;53.572;10.174;2022-10-17T03:49:53;4.53;;;3.07;;
3297;SDS011;1661;53.572;10.174;2022-10-17T03:52:20;4.10;;;3.90;;
3297;SDS011;1661;53.572;10.174;2022-10-17T03:54:49;5.53;;;3.07;;
3297;SDS011;1661;53.572;10.174;2022-10-17T03:57:16;3.60;;;3.30;;
3297;SDS011;1661;53.572;10.174;2022-10-17T03:59:43;8.37;;;3.63;;
3297;SDS011;1661;53.572;10.174;2022-10-17T04:02:10;4.93;;;3.30;;
3297;SDS011;1661;53.572;10.174;2022-10-17T04:04:36;9.93;;;3.70;;
3297;SDS011;1661;53.572;10.174;2022-10-17T04:07:03;6.47;;;3.60;;
3297;SDS011;1661;53.572;10.174;2022-10-17T04:09:30;6.10;;;4.17;;
3297;SDS011;1661;53.572;10.174;2022-10-17T04:11:58;9.00;;;4.10;;
3297;SDS011;1661;53.572;10.174;2022-10-17T04:14:24;4.40;;;3.10;;
3297;SDS011;1661;53.572;10.174;2022-10-17T04:16:51;5.33;;;3.80;;
3297;SDS011;1661;53.572;10.174;2022-10-17T04:19:18;11.80;;;3.87;;
3297;SDS011;1661;53.572;10.174;2022-10-17T04:21:45;8.90;;;4.00;;
3297;SDS011;1661;53.572;10.174;2022-10-17T04:24:11;4.40;;;4.10;;
3297;SDS011;1661;53.572;10.174;2022-10-17T04:26:38;4.17;;;3.83;;
3297;SDS011;1661;53.572;10.174;2022-10-17T04:29:06;3.33;;;3.03;;
3297;SDS011;1661;53.572;10.174;2022-10-17T04:31:33;6.90;;;4.27;;
3297;SDS011;1661;53.572;10.174;2022-10-17T04:33:59;5.27;;;3.73;;
3297;SDS011;1661;53.572;10.174;2022-10-17T04:36:26;3.30;;;3.10;;
3297;SDS011;1661;53.572;10.174;2022-10-17T04:38:53;4.53;;;3.70;;
3297;SDS011;1661;53.572;10.174;2022-10-17T04:41:19;10.20;;;3.43;;
3297;SDS011;1661;53.572;10.174;2022-10-17T04:43:46;3.60;;;3.30;;
3297;SDS011;1661;53.572;10.174;2022-10-17T04:46:14;3.30;;;2.97;;
3297;SDS011;1661;53.572;10.174;2022-10-17T04:48:41;12.00;;;4.43;;
3297;SDS011;1661;53.572;10.174;2022-10-17T04:51:09;6.80;;;3.43;;
3297;SDS011;1661;53.572;10.174;2022-10-17T04:53:38;4.20;;;3.20;;
3297;SDS011;1661;53.572;10.174;2022-10-17T04:56:09;5.33;;;3.60;;
3297;SDS011;1661;53.572;10.174;2022-10-17T04:58:38;5.57;;;3.97;;
3297;SDS011;1661;53.572;10.174;2022-10-17T05:01:06;5.13;;;3.60;;
3297;SDS011;1661;53.572;10.174;2022-10-17T05:03:35;3.97;;;3.67;;
3297;SDS011;1661;53.572;10.174;2022-10-17T05:06:05;6.63;;;3.77;;
3297;SDS011;1661;53.572;10.174;2022-10-17T05:08:33;11.93;;;3.53;;
3297;SDS011;1661;53.572;10.174;2022-10-17T05:11:00;3.93;;;3.53;;
3297;SDS011;1661;53.572;10.174;2022-10-17T05:13:27;4.17;;;3.77;;
3297;SDS011;1661;53.572;10.174;2022-10-17T05:15:57;5.50;;;4.07;;
3297;SDS011;1661;53.572;10.174;2022-10-17T05:18:24;5.03;;;4.00;;
3297;SDS011;1661;53.572;10.174;2022-10-17T05:20:53;4.33;;;3.93;;
3297;SDS011;1661;53.572;10.174;2022-10-17T05:23:19;6.33;;;4.30;;
3297;SDS011;1661;53.572;10.174;2022-10-17T05:25:46;4.20;;;3.80;;
3297;SDS011;1661;53.572;10.174;2022-10-17T05:28:13;4.87;;;3.90;;
3297;SDS011;1661;53.572;10.174;2022-10-17T05:30:39;5.60;;;4.03;;
3297;SDS011;1661;53.572;10.174;2022-10-17T05:33:06;6.53;;;4.23;;
3297;SDS011;1661;53.572;10.174;2022-10-17T05:35:33;4.13;;;3.63;;
3297;SDS011;1661;53.572;10.174;2022-10-17T05:38:02;4.30;;;4.00;;
3297;SDS011;1661;53.572;10.174;2022-10-17T05:40:29;3.60;;;3.30;;
3297;SDS011;1661;53.572;10.174;2022-10-17T05:42:55;3.70;;;2.97;;
3297;SDS011;1661;53.572;10.174;2022-10-17T05:45:22;7.20;;;3.70;;
3297;SDS011;1661;53.572;10.174;2022-10-17T05:47:49;4.77;;;2.83;;
3297;SDS011;1661;53.572;10.174;2022-10-17T05:50:16;4.07;;;3.70;;
3297;SDS011;1661;53.572;10.174;2022-10-17T05:52:44;3.63;;;3.43;;
3297;SDS011;1661;53.572;10.174;2022-10-17T05:55:13;5.57;;;4.90;;
3297;SDS011;1661;53.572;10.174;2022-10-17T05:57:39;7.47;;;3.77;;
3297;SDS011;1661;53.572;10.174;2022-10-17T06:00:06;4.77;;;3.83;;
3297;SDS011;1661;53.572;10.174;2022-10-17T06:02:34;3.80;;;3.30;;
3297;SDS011;1661;53.572;10.174;2022-10-17T06:05:01;9.03;;;3.90;;
3297;SDS011;1661;53.572;10.174;2022-10-17T06:07:27;4.20;;;3.90;;
3297;SDS011;1661;53.572;10.174;2022-10-17T06:09:54;9.03;;;3.50;;
3297;SDS011;1661;53.572;10.174;2022-10-17T06:12:24;6.53;;;3.53;;
3297;SDS011;1661;53.572;10.174;2022-10-17T06:14:50;7.73;;;4.03;;
3297;SDS011;1661;53.572;10.174;2022-10-17T06:17:17;3.30;;;3.10;;
3297;SDS011;1661;53.572;10.174;2022-10-17T06:19:44;4.10;;;3.80;;
3297;SDS011;1661;53.572;10.174;2022-10-17T06:22:11;5.50;;;3.90;;
3297;SDS011;1661;53.572;10.174;2022-10-17T06:24:37;7.90;;;4.30;;
3297;SDS011;1661;53.572;10.174;2022-10-17T06:27:04;3.63;;;3.33;;
3297;SDS011;1661;53.572;10.174;2022-10-17T06:29:32;5.30;;;3.87;;
3297;SDS011;1661;53.572;10.174;2022-10-17T06:31:59;3.27;;;3.07;;
3297;SDS011;1661;53.572;10.174;2022-10-17T06:34:26;4.23;;;3.83;;
3297;SDS011;1661;53.572;10.174;2022-10-17T06:36:52;8.73;;;4.30;;
3297;SDS011;1661;53.572;10.174;2022-10-17T06:39:19;4.57;;;3.90;;
3297;SDS011;1661;53.572;10.174;2022-10-17T06:41:46;4.43;;;3.60;;
3297;SDS011;1661;53.572;10.174;2022-10-17T06:44:12;4.37;;;4.07;;
3297;SDS011;1661;53.572;10.174;2022-10-17T06:46:41;6.20;;;4.40;;
3297;SDS011;1661;53.572;10.174;2022-10-17T06:49:08;5.33;;;3.87;;
3297;SDS011;1661;53.572;10.174;2022-10-17T06:51:36;5.00;;;4.50;;
3297;SDS011;1661;53.572;10.174;2022-10-17T06:54:03;3.87;;;3.57;;
3297;SDS011;1661;53.572;10.174;2022-10-17T06:56:29;8.30;;;4.73;;
3297;SDS011;1661;53.572;10.174;2022-10-17T06:58:56;4.97;;;4.60;;
3297;SDS011;1661;53.572;10.174;2022-10-17T07:01:23;6.53;;;4.83;;
3297;SDS011;1661;53.572;10.174;2022-10-17T07:03:51;5.30;;;5.00;;
3297;SDS011;1661;53.572;10.174;2022-10-17T07:06:18;6.17;;;5.30;;
3297;SDS011;1661;53.572;10.174;2022-10-17T07:08:48;7.50;;;4.43;;
3297;SDS011;1661;53.572;10.174;2022-10-17T07:11:17;4.73;;;4.33;;
3297;SDS011;1661;53.572;10.174;2022-10-17T07:13:45;4.23;;;3.93;;
3297;SDS011;1661;53.572;10.174;2022-10-17T07:16:13;6.50;;;4.20;;
3297;SDS011;1661;53.572;10.174;2022-10-17T07:18:41;5.17;;;4.67;;
3297;SDS011;1661;53.572;10.174;2022-10-17T07:21:09;6.00;;;4.90;;
3297;SDS011;1661;53.572;10.174;2022-10-17T07:23:39;6.23;;;5.37;;
3297;SDS011;1661;53.572;10.174;2022-10-17T07:26:06;9.20;;;5.00;;
3297;SDS011;1661;53.572;10.174;2022-10-17T07:28:34;8.53;;;4.00;;
3297;SDS011;1661;53.572;10.174;2022-10-17T07:31:03;4.70;;;4.30;;
3297;SDS011;1661;53.572;10.174;2022-10-17T07:33:30;14.13;;;5.30;;
3297;SDS011;1661;53.572;10.174;2022-10-17T07:35:57;5.00;;;4.50;;
3297;SDS011;1661;53.572;10.174;2022-10-17T07:38:26;4.50;;;4.10;;
3297;SDS011;1661;53.572;10.174;2022-10-17T07:40:53;5.00;;;4.63;;
3297;SDS011;1661;53.572;10.174;2022-10-17T07:43:20;7.53;;;4.67;;
3297;SDS011;1661;53.572;10.174;2022-10-17T07:45:47;5.10;;;4.00;;
3297;SDS011;1661;53.572;10.174;2022-10-17T07:48:14;7.00;;;3.50;;
3297;SDS011;1661;53.572;10.174;2022-10-17T07:50:41;5.60;;;4.60;;
3297;SDS011;1661;53.572;10.174;2022-10-17T07:53:07;4.23;;;3.80;;
3297;SDS011;1661;53.572;10.174;2022-10-17T07:55:36;5.10;;;3.80;;
3297;SDS011;1661;53.572;10.174;2022-10-17T07:58:03;4.60;;;4.13;;
3297;SDS011;1661;53.572;10.174;2022-10-17T08:00:30;4.00;;;3.67;;
3297;SDS011;1661;53.572;10.174;2022-10-17T08:02:57;4.30;;;3.90;;
3297;SDS011;1661;53.572;10.174;2022-10-17T08:05:23;6.50;;;4.00;;
3297;SDS011;1661;53.572;10.174;2022-10-17T08:07:50;7.13;;;4.30;;
3297;SDS011;1661;53.572;10.174;2022-10-17T08:10:17;4.30;;;3.57;;
3297;SDS011;1661;53.572;10.174;2022-10-17T08:12:45;4.10;;;3.70;;
3297;SDS011;1661;53.572;10.174;2022-10-17T08:15:12;10.13;;;4.27;;
3297;SDS011;1661;53.572;10.174;2022-10-17T08:17:39;4.37;;;3.97;;
3297;SDS011;1661;53.572;10.174;2022-10-17T08:20:06;4.53;;;4.10;;
3297;SDS011;1661;53.572;10.174;2022-10-17T08:22:33;6.10;;;4.30;;
3297;SDS011;1661;53.572;10.174;2022-10-17T08:25:00;3.90;;;3.60;;
3297;SDS011;1661;53.572;10.174;2022-10-17T08:27:27;8.30;;;3.63;;
3297;SDS011;1661;53.572;10.174;2022-10-17T08:29:55;3.77;;;3.47;;
3297;SDS011;1661;53.572;10.174;2022-10-17T08:32:22;10.40;;;4.17;;
3297;SDS011;1661;53.572;10.174;2022-10-17T08:34:51;5.17;;;4.70;;
3297;SDS011;1661;53.572;10.174;2022-10-17T08:37:19;4.87;;;3.40;;
3297;SDS011;1661;53.572;10.174;2022-10-17T08:39:47;5.33;;;3.33;;
3297;SDS011;1661;53.572;10.174;2022-10-17T08:42:24;10.10;;;3.40;;
3297;SDS011;1661;53.572;10.174;2022-10-17T08:45:04;6.63;;;3.60;;
3297;SDS011;1661;53.572;10.174;2022-10-17T08:47:39;9.63;;;3.90;;
3297;SDS011;1661;53.572;10.174;2022-10-17T08:50:10;3.97;;;3.67;;
3297;SDS011;1661;53.572;10.174;2022-10-17T08:52:40;5.10;;;3.33;;
3297;SDS011;1661;53.572;10.174;2022-10-17T08:55:12;4.20;;;3.83;;
3297;SDS011;1661;53.572;10.174;2022-10-17T08:57:40;7.83;;;3.40;;
3297;SDS011;1661;53.572;10.174;2022-10-17T09:00:12;4.27;;;3.87;;
3297;SDS011;1661;53.572;10.174;2022-10-17T09:02:49;6.50;;;4.13;;
3297;SDS011;1661;53.572;10.174;2022-10-17T09:05:29;12.70;;;3.80;;
3297;SDS011;1661;53.572;10.174;2022-10-17T09:08:12;13.73;;;4.07;;
3297;SDS011;1661;53.572;10.174;2022-10-17T09:10:51;5.30;;;3.50;;
3297;SDS011;1661;53.572;10.174;2022-10-17T09:13:26;4.13;;;3.20;;
3297;SDS011;1661;53.572;10.174;2022-10-17T09:16:08;6.03;;;3.10;;
3297;SDS011;1661;53.572;10.174;2022-10-17T09:18:42;4.60;;;3.90;;
3297;SDS011;1661;53.572;10.174;2022-10-17T09:21:16;8.70;;;3.77;;
3297;SDS011;1661;53.572;10.174;2022-10-17T09:23:46;4.00;;;3.60;;
3297;SDS011;1661;53.572;10.174;2022-10-17T09:26:16;4.27;;;3.53;;
3297;SDS011;1661;53.572;10.174;2022-10-17T09:28:42;3.80;;;3.50;;
3297;SDS011;1661;53.572;10.174;2022-10-17T09:31:13;5.90;;;3.77;;
3297;SDS011;1661;53.572;10.174;2022-10-17T09:33:45;3.90;;;3.13;;
3297;SDS011;1661;53.572;10.174;2022-10-17T09:36:14;5.80;;;4.53;;
3297;SDS011;1661;53.572;10.174;2022-10-17T09:38:43;3.33;;;3.10;;
3297;SDS011;1661;53.572;10.174;2022-10-17T09:41:15;3.67;;;3.20;;
3297;SDS011;1661;53.572;10.174;2022-10-17T09:43:44;3.90;;;3.23;;
3297;SDS011;1661;53.572;10.174;2022-10-17T09:46:14;4.10;;;3.10;;
3297;SDS011;1661;53.572;10.174;2022-10-17T09:48:49;6.53;;;3.33;;
3297;SDS011;1661;53.572;10.174;2022-10-17T09:51:19;3.93;;;3.63;;
3297;SDS011;1661;53.572;10.174;2022-10-17T09:53:46;4.43;;;3.30;;
3297;SDS011;1661;53.572;10.174;2022-10-17T09:56:16;4.40;;;3.10;;
3297;SDS011;1661;53.572;10.174;2022-10-17T09:58:44;7.70;;;3.10;;
3297;SDS011;1661;53.572;10.174;2022-10-17T10:01:21;6.10;;;3.17;;
3297;SDS011;1661;53.572;10.174;2022-10-17T10:04:06;4.70;;;3.37;;
3297;SDS011;1661;53.572;10.174;2022-10-17T10:06:35;8.50;;;3.70;;
3297;SDS011;1661;53.572;10.174;2022-10-17T10:09:02;5.90;;;3.57;;
3297;SDS011;1661;53.572;10.174;2022-10-17T10:11:43;7.03;;;3.43;;
3297;SDS011;1661;53.572;10.174;2022-10-17T10:14:18;5.00;;;3.20;;
3297;SDS011;1661;53.572;10.174;2022-10-17T10:16:48;5.70;;;3.27;;
3297;SDS011;1661;53.572;10.174;2022-10-17T10:19:24;5.70;;;3.00;;
3297;SDS011;1661;53.572;10.174;2022-10-17T10:21:55;6.00;;;3.93;;
3297;SDS011;1661;53.572;10.174;2022-10-17T10:24:23;4.00;;;2.80;;
3297;SDS011;1661;53.572;10.174;2022-10-17T10:26:51;5.97;;;3.43;;
3297;SDS011;1661;53.572;10.174;2022-10-17T10:29:21;10.57;;;3.50;;
3297;SDS011;1661;53.572;10.174;2022-10-17T10:31:54;8.37;;;3.63;;
3297;SDS011;1661;53.572;10.174;2022-10-17T10:34:22;4.93;;;3.53;;
3297;SDS011;1661;53.572;10.174;2022-10-17T10:36:54;4.20;;;3.80;;
3297;SDS011;1661;53.572;10.174;2022-10-17T10:39:31;5.33;;;4.30;;
3297;SDS011;1661;53.572;10.174;2022-10-17T10:42:01;6.93;;;3.70;;
3297;SDS011;1661;53.572;10.174;2022-10-17T10:44:31;3.30;;;2.97;;
3297;SDS011;1661;53.572;10.174;2022-10-17T10:47:07;10.30;;;4.43;;
3297;SDS011;1661;53.572;10.174;2022-10-17T10:49:41;4.67;;;3.30;;
3297;SDS011;1661;53.572;10.174;2022-10-17T10:52:09;6.00;;;4.07;;
3297;SDS011;1661;53.572;10.174;2022-10-17T10:54:41;3.87;;;3.57;;
3297;SDS011;1661;53.572;10.174;2022-10-17T10:57:20;10.27;;;3.80;;
3297;SDS011;1661;53.572;10.174;2022-10-17T10:59:52;5.80;;;3.30;;
3297;SDS011;1661;53.572;10.174;2022-10-17T11:02:28;5.23;;;3.60;;
3297;SDS011;1661;53.572;10.174;2022-10-17T11:04:59;9.43;;;4.20;;
3297;SDS011;1661;53.572;10.174;2022-10-17T11:07:31;7.40;;;3.40;;
3297;SDS011;1661;53.572;10.174;2022-10-17T11:10:02;5.60;;;4.10;;
3297;SDS011;1661;53.572;10.174;2022-10-17T11:12:37;3.73;;;3.43;;
3297;SDS011;1661;53.572;10.174;2022-10-17T11:15:08;3.63;;;3.33;;
3297;SDS011;1661;53.572;10.174;2022-10-17T11:17:47;6.40;;;4.40;;
3297;SDS011;1661;53.572;10.174;2022-10-17T11:20:21;4.00;;;3.70;;
3297;SDS011;1661;53.572;10.174;2022-10-17T11:22:57;4.83;;;4.00;;
3297;SDS011;1661;53.572;10.174;2022-10-17T11:25:36;5.60;;;4.67;;
3297;SDS011;1661;53.572;10.174;2022-10-17T11:28:09;3.90;;;3.20;;
3297;SDS011;1661;53.572;10.174;2022-10-17T11:30:40;5.93;;;3.90;;
3297;SDS011;1661;53.572;10.174;2022-10-17T11:33:13;10.07;;;4.00;;
3297;SDS011;1661;53.572;10.174;2022-10-17T11:35:43;4.17;;;3.73;;
3297;SDS011;1661;53.572;10.174;2022-10-17T11:38:14;5.93;;;3.93;;
3297;SDS011;1661;53.572;10.174;2022-10-17T11:40:44;6.73;;;4.00;;
3297;SDS011;1661;53.572;10.174;2022-10-17T11:43:15;4.67;;;4.27;;
3297;SDS011;1661;53.572;10.174;2022-10-17T11:45:47;4.70;;;3.50;;
3297;SDS011;1661;53.572;10.174;2022-10-17T11:48:22;5.27;;;4.40;;
3297;SDS011;1661;53.572;10.174;2022-10-17T11:50:52;6.37;;;4.20;;
3297;SDS011;1661;53.572;10.174;2022-10-17T11:53:26;10.70;;;4.53;;
3297;SDS011;1661;53.572;10.174;2022-10-17T11:55:56;8.20;;;4.63;;
3297;SDS011;1661;53.572;10.174;2022-10-17T11:58:27;6.43;;;4.57;;
3297;SDS011;1661;53.572;10.174;2022-10-17T12:01:05;8.17;;;4.93;;
3297;SDS011;1661;53.572;10.174;2022-10-17T12:03:43;4.87;;;4.37;;
3297;SDS011;1661;53.572;10.174;2022-10-17T12:06:17;6.50;;;4.43;;
3297;SDS011;1661;53.572;10.174;2022-10-17T12:09:00;6.33;;;4.30;;
3297;SDS011;1661;53.572;10.174;2022-10-17T12:11:38;11.07;;;3.90;;
3297;SDS011;1661;53.572;10.174;2022-10-17T12:17:20;12.83;;;6.73;;
3297;SDS011;1661;53.572;10.174;2022-10-17T12:19:55;9.90;;;7.00;;
3297;SDS011;1661;53.572;10.174;2022-10-17T12:22:51;10.60;;;7.50;;
3297;SDS011;1661;53.572;10.174;2022-10-17T12:25:20;8.20;;;6.80;;
3297;SDS011;1661;53.572;10.174;2022-10-17T12:27:50;8.17;;;6.03;;
3297;SDS011;1661;53.572;10.174;2022-10-17T12:30:48;14.43;;;5.87;;
3297;SDS011;1661;53.572;10.174;2022-10-17T12:33:17;11.77;;;7.43;;
3297;SDS011;1661;53.572;10.174;2022-10-17T12:35:48;18.73;;;5.50;;
3297;SDS011;1661;53.572;10.174;2022-10-17T12:38:23;9.43;;;6.70;;
3297;SDS011;1661;53.572;10.174;2022-10-17T12:41:01;14.83;;;6.90;;
3297;SDS011;1661;53.572;10.174;2022-10-17T12:43:45;6.43;;;5.60;;
3297;SDS011;1661;53.572;10.174;2022-10-17T12:52:18;9.53;;;5.80;;
3297;SDS011;1661;53.572;10.174;2022-10-17T12:54:57;7.77;;;5.10;;
3297;SDS011;1661;53.572;10.174;2022-10-17T12:57:39;6.53;;;5.07;;
3297;SDS011;1661;53.572;10.174;2022-10-17T13:00:41;13.53;;;5.60;;
3297;SDS011;1661;53.572;10.174;2022-10-17T13:03:13;15.83;;;5.63;;
3297;SDS011;1661;53.572;10.174;2022-10-17T13:05:44;7.53;;;4.97;;
3297;SDS011;1661;53.572;10.174;2022-10-17T13:08:15;8.50;;;5.70;;
3297;SDS011;1661;53.572;10.174;2022-10-17T13:10:46;7.53;;;5.67;;
3297;SDS011;1661;53.572;10.174;2022-10-17T13:13:15;5.73;;;5.00;;
3297;SDS011;1661;53.572;10.174;2022-10-17T13:15:45;10.70;;;5.13;;
3297;SDS011;1661;53.572;10.174;2022-10-17T13:18:16;6.53;;;5.97;;
3297;SDS011;1661;53.572;10.174;2022-10-17T13:20:52;6.83;;;5.50;;
3297;SDS011;1661;53.572;10.174;2022-10-17T13:23:22;9.30;;;5.57;;
3297;SDS011;1661;53.572;10.174;2022-10-17T13:26:01;17.90;;;6.30;;
3297;SDS011;1661;53.572;10.174;2022-10-17T13:28:32;9.30;;;7.40;;
3297;SDS011;1661;53.572;10.174;2022-10-17T13:30:59;10.13;;;6.93;;
3297;SDS011;1661;53.572;10.174;2022-10-17T13:33:28;9.17;;;7.37;;
3297;SDS011;1661;53.572;10.174;2022-10-17T13:35:59;8.97;;;8.07;;
3297;SDS011;1661;53.572;10.174;2022-10-17T13:38:30;9.90;;;8.43;;
3297;SDS011;1661;53.572;10.174;2022-10-17T13:40:58;9.60;;;8.03;;
3297;SDS011;1661;53.572;10.174;2022-10-17T13:43:26;11.70;;;8.20;;
3297;SDS011;1661;53.572;10.174;2022-10-17T13:45:55;14.40;;;8.70;;
3297;SDS011;1661;53.572;10.174;2022-10-17T13:48:25;12.90;;;10.27;;
3297;SDS011;1661;53.572;10.174;2022-10-17T13:50:53;16.43;;;9.67;;
3297;SDS011;1661;53.572;10.174;2022-10-17T13:53:29;10.27;;;9.33;;
3297;SDS011;1661;53.572;10.174;2022-10-17T13:55:59;9.77;;;8.77;;
3297;SDS011;1661;53.572;10.174;2022-10-17T13:58:31;12.33;;;9.47;;
3297;SDS011;1661;53.572;10.174;2022-10-17T14:01:06;11.27;;;9.50;;
3297;SDS011;1661;53.572;10.174;2022-10-17T14:03:33;11.13;;;8.50;;
3297;SDS011;1661;53.572;10.174;2022-10-17T14:06:05;13.67;;;9.20;;
3297;SDS011;1661;53.572;10.174;2022-10-17T14:08:39;17.53;;;10.73;;
3297;SDS011;1661;53.572;10.174;2022-10-17T14:11:21;11.77;;;10.23;;
3297;SDS011;1661;53.572;10.174;2022-10-17T14:13:55;12.40;;;10.20;;
3297;SDS011;1661;53.572;10.174;2022-10-17T14:16:24;17.07;;;13.97;;
3297;SDS011;1661;53.572;10.174;2022-10-17T14:18:52;19.97;;;14.00;;
3297;SDS011;1661;53.572;10.174;2022-10-17T14:21:21;18.07;;;10.40;;
3297;SDS011;1661;53.572;10.174;2022-10-17T14:23:51;11.97;;;10.30;;
3297;SDS011;1661;53.572;10.174;2022-10-17T14:26:45;14.60;;;10.37;;
3297;SDS011;1661;53.572;10.174;2022-10-17T14:29:17;16.63;;;10.83;;
3297;SDS011;1661;53.572;10.174;2022-10-17T14:31:48;18.57;;;10.40;;
3297;SDS011;1661;53.572;10.174;2022-10-17T14:34:19;10.70;;;9.63;;
3297;SDS011;1661;53.572;10.174;2022-10-17T14:36:49;11.10;;;10.00;;
3297;SDS011;1661;53.572;10.174;2022-10-17T14:39:19;10.67;;;9.70;;
3297;SDS011;1661;53.572;10.174;2022-10-17T14:41:49;21.27;;;12.20;;
3297;SDS011;1661;53.572;10.174;2022-10-17T14:44:21;21.67;;;10.70;;
3297;SDS011;1661;53.572;10.174;2022-10-17T14:46:56;17.27;;;11.00;;
3297;SDS011;1661;53.572;10.174;2022-10-17T14:49:32;12.73;;;9.73;;
3297;SDS011;1661;53.572;10.174;2022-10-17T14:54:53;15.37;;;13.03;;
3297;SDS011;1661;53.572;10.174;2022-10-17T14:57:22;12.60;;;11.30;;
3297;SDS011;1661;53.572;10.174;2022-10-17T15:00:06;18.67;;;11.53;;
3297;SDS011;1661;53.572;10.174;2022-10-17T15:02:35;23.13;;;13.33;;
3297;SDS011;1661;53.572;10.174;2022-10-17T15:05:02;16.33;;;12.60;;
3297;SDS011;1661;53.572;10.174;2022-10-17T15:07:29;15.13;;;11.20;;
3297;SDS011;1661;53.572;10.174;2022-10-17T15:09:57;21.20;;;12.93;;
3297;SDS011;1661;53.572;10.174;2022-10-17T15:12:24;15.47;;;11.37;;
3297;SDS011;1661;53.572;10.174;2022-10-17T15:14:51;12.80;;;11.63;;
3297;SDS011;1661;53.572;10.174;2022-10-17T15:17:19;11.60;;;10.03;;
3297;SDS011;1661;53.572;10.174;2022-10-17T15:19:47;13.50;;;10.33;;
3297;SDS011;1661;53.572;10.174;2022-10-17T15:22:14;13.10;;;11.20;;
3297;SDS011;1661;53.572;10.174;2022-10-17T15:24:42;12.07;;;10.97;;
3297;SDS011;1661;53.572;10.174;2022-10-17T15:27:13;11.83;;;10.70;;
3297;SDS011;1661;53.572;10.174;2022-10-17T15:29:41;10.33;;;9.23;;
3297;SDS011;1661;53.572;10.174;2022-10-17T15:32:08;13.80;;;11.83;;